Time;durP1;ratioP1;P1;durP2;ratioP2;P2;SDS_P1;SDS_P2;PMS_P1;PMS_P2;Temp;Humidity;BMP_temperature;BMP_pressure;BME280_temperature;BME280_humidity;BME280_pressure;Samples;Min_cycle;Max_cycle;Signal;HPM_P1;HPM_P2
2021/03/15 00:00:25;;;;;;;8.27;3.72;;;;;;;19.45;57.55;101754.34;4881651;29;20489;-77
2021/03/15 00:02:52;;;;;;;8.32;3.95;;;;;;;19.44;57.36;101760.66;4887544;29;20037;-78
2021/03/15 00:05:18;;;;;;;8.25;3.65;;;;;;;19.44;57.58;101770.47;4889889;29;20434;-76
2021/03/15 00:07:44;;;;;;;7.20;4.10;;;;;;;19.43;57.43;101763.50;4894092;29;20511;-78
2021/03/15 00:10:10;;;;;;;7.82;3.90;;;;;;;19.41;57.21;101769.00;4893421;29;20068;-79
2021/03/15 00:12:39;;;;;;;7.07;3.55;;;;;;;19.40;57.39;101769.97;4876674;29;20052;-78
2021/03/15 00:15:06;;;;;;;7.88;3.58;;;;;;;19.39;57.55;101775.47;4894435;29;20442;-78
2021/03/15 00:17:32;;;;;;;9.23;3.80;;;;;;;19.39;57.43;101778.13;4892191;29;20151;-78
2021/03/15 00:19:57;;;;;;;6.72;3.63;;;;;;;19.37;57.11;101777.47;4883914;29;20068;-77
2021/03/15 00:22:23;;;;;;;7.13;4.00;;;;;;;19.35;57.41;101782.16;4894220;29;20381;-74
2021/03/15 00:24:48;;;;;;;8.27;4.05;;;;;;;19.35;57.02;101785.63;4881113;29;20153;-76
2021/03/15 00:27:14;;;;;;;7.43;3.70;;;;;;;19.33;57.30;101782.31;4895237;29;20040;-78
2021/03/15 00:29:39;;;;;;;6.65;3.67;;;;;;;19.32;57.27;101788.63;4888186;29;20144;-79
2021/03/15 00:32:06;;;;;;;8.55;3.83;;;;;;;19.32;57.27;101791.31;4869497;29;20068;-78
2021/03/15 00:34:33;;;;;;;6.97;4.05;;;;;;;19.30;57.25;101785.31;4876831;29;20116;-78
2021/03/15 00:37:00;;;;;;;6.68;3.65;;;;;;;19.30;57.47;101779.19;4894374;29;20051;-79
2021/03/15 00:39:26;;;;;;;7.93;3.88;;;;;;;19.28;57.39;101778.53;4858304;29;20040;-78
2021/03/15 00:41:51;;;;;;;8.63;3.63;;;;;;;19.27;57.31;101783.00;4894572;29;20052;-78
2021/03/15 00:44:17;;;;;;;6.90;3.60;;;;;;;19.26;56.94;101780.53;4894377;29;20151;-78
2021/03/15 00:46:42;;;;;;;6.38;3.17;;;;;;;19.26;57.19;101794.66;4893541;29;20143;-76
2021/03/15 00:49:08;;;;;;;6.97;3.42;;;;;;;19.25;57.01;101800.13;4873630;29;20481;-78
2021/03/15 00:51:33;;;;;;;6.07;3.42;;;;;;;19.24;56.93;101798.47;4877052;29;20044;-78
2021/03/15 00:53:59;;;;;;;6.97;3.50;;;;;;;19.23;57.13;101796.81;4893409;29;20033;-78
2021/03/15 00:56:24;;;;;;;8.77;3.33;;;;;;;19.23;57.10;101797.63;4883691;29;20714;-76
2021/03/15 00:58:50;;;;;;;8.07;3.60;;;;;;;19.21;57.20;101804.97;4901336;29;20048;-78
2021/03/15 01:01:19;;;;;;;7.43;3.67;;;;;;;19.21;56.94;101809.44;4870631;29;20048;-78
2021/03/15 01:03:45;;;;;;;7.43;3.38;;;;;;;19.20;57.33;101813.94;4875239;29;20047;-79
2021/03/15 01:06:13;;;;;;;8.15;3.45;;;;;;;19.19;57.16;101817.59;4877400;29;20040;-78
2021/03/15 01:08:39;;;;;;;8.25;3.72;;;;;;;19.18;57.15;101825.75;4880978;29;20109;-78
2021/03/15 01:11:04;;;;;;;7.68;3.47;;;;;;;19.17;56.79;101814.28;4888506;29;20037;-78
2021/03/15 01:13:30;;;;;;;5.35;3.05;;;;;;;19.15;57.22;101806.47;4883956;29;20049;-77
2021/03/15 01:15:56;;;;;;;7.50;3.38;;;;;;;19.14;57.07;101818.13;4880285;29;20033;-77
2021/03/15 01:18:22;;;;;;;7.85;3.60;;;;;;;19.14;56.84;101814.63;4876309;29;20039;-79
2021/03/15 01:20:47;;;;;;;9.35;3.80;;;;;;;19.13;57.17;101812.97;4892424;29;20040;-77
2021/03/15 01:23:13;;;;;;;8.48;3.67;;;;;;;19.13;56.89;101829.75;4881247;29;20387;-78
2021/03/15 01:25:40;;;;;;;6.20;3.30;;;;;;;19.10;56.68;101830.09;4876988;29;20076;-78
2021/03/15 01:28:09;;;;;;;8.05;3.63;;;;;;;19.10;57.09;101822.13;4880299;29;20147;-78
2021/03/15 01:30:35;;;;;;;9.07;3.58;;;;;;;19.09;56.85;101832.91;4882480;29;20136;-78
2021/03/15 01:33:01;;;;;;;7.05;3.40;;;;;;;19.08;56.78;101832.06;4861624;29;20135;-73
2021/03/15 01:35:26;;;;;;;6.70;3.33;;;;;;;19.07;57.03;101829.59;4894263;29;20124;-77
2021/03/15 01:37:52;;;;;;;6.50;3.55;;;;;;;19.06;57.02;101828.75;4875459;29;20107;-77
2021/03/15 01:40:18;;;;;;;6.43;3.13;;;;;;;19.06;56.62;101828.75;4892885;29;20096;-78
2021/03/15 01:42:44;;;;;;;5.72;3.10;;;;;;;19.06;56.83;101834.06;4879661;29;20033;-78
2021/03/15 01:45:11;;;;;;;7.22;3.20;;;;;;;19.06;56.96;101838.56;4854326;29;20409;-77
2021/03/15 01:47:39;;;;;;;7.30;3.67;;;;;;;19.05;56.76;101836.91;4858369;29;20060;-78
2021/03/15 01:50:06;;;;;;;7.13;3.55;;;;;;;19.03;56.57;101834.41;4891715;29;20473;-78
2021/03/15 01:52:34;;;;;;;6.30;3.17;;;;;;;19.04;57.04;101848.53;4893330;29;20510;-77
2021/03/15 01:55:00;;;;;;;6.88;3.47;;;;;;;19.03;56.75;101850.38;4891245;29;20055;-73
2021/03/15 01:57:25;;;;;;;6.47;3.10;;;;;;;19.03;56.49;101860.19;4893754;29;20412;-77
2021/03/15 01:59:51;;;;;;;6.28;2.80;;;;;;;19.03;56.98;101860.19;4901910;29;20052;-77
2021/03/15 02:02:17;;;;;;;5.68;3.13;;;;;;;19.01;56.75;101852.38;4860382;29;20048;-78
2021/03/15 02:04:43;;;;;;;7.53;3.70;;;;;;;19.00;56.69;101855.19;4861337;29;20044;-79
2021/03/15 02:07:09;;;;;;;8.40;3.72;;;;;;;19.00;56.62;101855.19;4890797;29;20380;-79
2021/03/15 02:09:34;;;;;;;6.25;3.40;;;;;;;18.99;56.61;101854.38;4892903;29;20037;-78
2021/03/15 02:12:09;;;;;;;5.85;2.90;;;;;;;18.99;56.78;101850.88;4875645;29;20045;-74
2021/03/15 02:15:01;;;;;;;6.80;3.55;;;;;;;18.97;56.81;101856.38;4892197;29;20473;-78
2021/03/15 02:17:51;;;;;;;6.05;3.20;;;;;;;18.97;56.59;101861.69;4892660;29;20469;-78
2021/03/15 02:20:35;;;;;;;5.07;3.00;;;;;;;18.96;56.89;101865.34;4882022;29;20116;-76
2021/03/15 02:23:32;;;;;;;5.03;3.33;;;;;;;18.93;56.56;101865.66;4891629;29;20115;-74
2021/03/15 02:26:24;;;;;;;4.93;2.85;;;;;;;18.94;56.56;101863.84;4875113;29;20505;-76
2021/03/15 02:29:11;;;;;;;5.70;3.00;;;;;;;18.93;56.61;101872.81;4876002;29;20032;-76
2021/03/15 02:32:13;;;;;;;6.10;3.17;;;;;;;18.93;56.50;101870.97;4874726;29;20052;-78
2021/03/15 02:35:04;;;;;;;6.72;3.13;;;;;;;18.91;56.61;101870.31;4890802;29;20671;-78
2021/03/15 02:37:45;;;;;;;5.75;3.05;;;;;;;18.91;56.82;101861.50;4891464;29;20183;-79
2021/03/15 02:40:17;;;;;;;7.15;3.08;;;;;;;18.92;56.26;101863.16;4884562;29;20040;-77
2021/03/15 02:42:47;;;;;;;6.47;3.03;;;;;;;18.92;56.70;101865.81;4896038;29;20047;-77
2021/03/15 02:45:13;;;;;;;7.53;3.00;;;;;;;18.91;56.54;101861.50;4893014;29;20044;-78
2021/03/15 02:47:40;;;;;;;6.65;3.00;;;;;;;18.90;56.70;101860.69;4876745;29;20057;-78
2021/03/15 02:50:08;;;;;;;5.47;2.90;;;;;;;18.90;56.53;101866.00;4876541;29;20029;-78
2021/03/15 02:52:39;;;;;;;5.95;2.78;;;;;;;18.89;56.82;101869.66;4877955;29;20033;-79
2021/03/15 02:55:06;;;;;;;5.93;3.20;;;;;;;18.88;56.56;101867.16;4875808;29;20453;-79
2021/03/15 02:57:35;;;;;;;6.35;2.80;;;;;;;18.88;56.59;101867.16;4876837;29;20076;-80
2021/03/15 03:00:05;;;;;;;5.78;2.90;;;;;;;18.87;56.53;101866.34;4884161;29;20048;-75
2021/03/15 03:02:30;;;;;;;6.38;2.95;;;;;;;18.87;56.59;101869.00;4873072;29;20049;-78
2021/03/15 03:04:59;;;;;;;5.43;2.58;;;;;;;18.86;56.30;101862.00;4858544;29;20068;-77
2021/03/15 03:07:26;;;;;;;6.25;2.88;;;;;;;18.85;56.33;101861.19;4872652;29;21610;-79
2021/03/15 03:09:54;;;;;;;7.88;2.85;;;;;;;18.84;56.51;101862.19;4877365;29;20049;-79
2021/03/15 03:12:20;;;;;;;5.85;2.67;;;;;;;18.84;56.24;101866.66;4869446;29;20222;-79
2021/03/15 03:14:48;;;;;;;6.30;3.08;;;;;;;18.84;56.67;101866.66;4849748;29;20422;-77
2021/03/15 03:17:15;;;;;;;6.50;3.13;;;;;;;18.81;56.26;101859.88;4877316;29;20033;-79
2021/03/15 03:19:41;;;;;;;5.53;2.60;;;;;;;18.83;56.30;101865.00;4877386;29;20540;-79
2021/03/15 03:22:09;;;;;;;5.63;2.53;;;;;;;18.83;56.31;101865.00;4875606;29;20461;-79
2021/03/15 03:24:35;;;;;;;5.57;3.00;;;;;;;18.81;56.69;101867.00;4874724;29;20465;-79
2021/03/15 03:27:03;;;;;;;5.65;2.67;;;;;;;18.82;56.71;101866.00;4877290;29;20037;-77
2021/03/15 03:29:29;;;;;;;5.85;2.67;;;;;;;18.80;56.33;101866.19;4877967;29;20057;-78
2021/03/15 03:31:57;;;;;;;5.88;2.85;;;;;;;18.80;56.25;101865.34;4885624;29;20044;-79
2021/03/15 03:34:23;;;;;;;6.25;2.75;;;;;;;18.79;56.23;101866.34;4859718;29;20071;-79
2021/03/15 03:36:49;;;;;;;6.03;2.80;;;;;;;18.79;56.39;101872.50;4876473;29;20428;-78
2021/03/15 03:39:14;;;;;;;6.43;2.72;;;;;;;18.79;56.21;101871.66;4870411;29;20048;-79
2021/03/15 03:41:40;;;;;;;6.78;2.83;;;;;;;18.78;56.47;101877.97;4874443;29;20532;-79
2021/03/15 03:44:08;;;;;;;4.63;2.50;;;;;;;18.77;56.27;101876.28;4878059;29;20045;-78
2021/03/15 03:46:34;;;;;;;6.55;2.80;;;;;;;18.76;56.32;101875.47;4887014;29;20095;-78
2021/03/15 03:49:01;;;;;;;5.30;2.42;;;;;;;18.75;56.05;101880.94;4880995;29;20044;-74
2021/03/15 03:51:31;;;;;;;5.82;2.25;;;;;;;18.76;56.40;101882.59;4895335;29;20056;-77
2021/03/15 03:54:06;;;;;;;5.68;2.60;;;;;;;18.74;56.03;101880.13;4904940;29;20037;-78
2021/03/15 03:56:37;;;;;;;5.43;2.65;;;;;;;18.74;56.52;101876.63;4877904;29;20044;-77
2021/03/15 03:59:04;;;;;;;6.97;2.70;;;;;;;18.74;56.10;101881.94;4894762;29;20084;-78
2021/03/15 04:01:41;;;;;;;5.68;2.50;;;;;;;18.72;56.44;101886.59;4894523;29;20036;-79
2021/03/15 04:04:10;;;;;;;6.07;2.55;;;;;;;18.73;55.95;101874.97;4894716;29;20068;-79
2021/03/15 04:06:36;;;;;;;6.00;2.40;;;;;;;18.72;56.07;101887.44;4894722;29;20103;-78
2021/03/15 04:09:05;;;;;;;5.60;2.78;;;;;;;18.71;55.98;101890.25;4873008;29;20045;-78
2021/03/15 04:11:33;;;;;;;5.68;2.92;;;;;;;18.71;56.10;101892.91;4884770;29;20040;-77
2021/03/15 04:13:59;;;;;;;6.70;2.45;;;;;;;18.70;56.24;101886.75;4875515;29;20077;-77
2021/03/15 04:16:29;;;;;;;6.57;2.50;;;;;;;18.70;55.89;101896.56;4877679;29;20121;-78
2021/03/15 04:18:58;;;;;;;6.78;2.38;;;;;;;18.68;56.17;101891.41;4894242;29;20516;-79
2021/03/15 04:21:26;;;;;;;7.22;2.97;;;;;;;18.70;56.09;101901.88;4893900;29;20092;-78
2021/03/15 04:23:54;;;;;;;6.25;2.15;;;;;;;18.68;55.91;101898.56;4892629;29;20040;-78
2021/03/15 04:26:22;;;;;;;5.55;2.35;;;;;;;18.67;55.88;101908.34;4889477;29;20865;-78
2021/03/15 04:28:49;;;;;;;4.82;2.08;;;;;;;18.67;56.45;101905.69;4872036;29;20020;-77
2021/03/15 04:31:16;;;;;;;6.68;2.75;;;;;;;18.67;55.92;101913.69;4876071;29;20025;-78
2021/03/15 04:33:44;;;;;;;5.53;2.47;;;;;;;18.67;56.19;101915.50;4894068;29;20040;-78
2021/03/15 04:36:13;;;;;;;6.20;2.63;;;;;;;18.66;55.91;101920.00;4883737;29;20088;-78
2021/03/15 04:38:40;;;;;;;5.63;2.17;;;;;;;18.66;55.88;101924.47;4879736;29;20049;-78
2021/03/15 04:41:06;;;;;;;6.65;2.65;;;;;;;18.65;55.85;101923.63;4879041;29;20383;-77
2021/03/15 04:43:32;;;;;;;4.55;2.25;;;;;;;18.64;56.14;101923.81;4874723;29;20104;-78
2021/03/15 04:45:58;;;;;;;4.28;2.17;;;;;;;18.64;56.05;101927.28;4872196;29;20096;-77
2021/03/15 04:48:26;;;;;;;6.78;2.88;;;;;;;18.64;55.90;101929.94;4876534;29;20044;-77
2021/03/15 04:51:03;;;;;;;6.18;2.45;;;;;;;18.62;56.09;101931.06;4894738;29;20040;-78
2021/03/15 04:53:32;;;;;;;5.20;2.40;;;;;;;18.63;55.67;101951.34;4883510;29;20061;-79
2021/03/15 04:56:02;;;;;;;6.22;2.55;;;;;;;18.61;55.75;101951.47;4883741;29;20115;-79
2021/03/15 04:58:30;;;;;;;5.30;2.20;;;;;;;18.62;56.13;101949.66;4894448;29;20769;-78
2021/03/15 05:01:00;;;;;;;5.65;2.50;;;;;;;18.60;56.01;101947.16;4893770;29;20043;-79
2021/03/15 05:03:26;;;;;;;5.68;2.20;;;;;;;18.61;55.81;101955.97;4883141;29;20124;-78
2021/03/15 05:05:56;;;;;;;5.35;2.30;;;;;;;18.59;55.64;101949.97;4859665;29;20131;-77
2021/03/15 05:08:28;;;;;;;5.70;2.40;;;;;;;18.59;55.69;101944.66;4876948;29;20854;-77
2021/03/15 05:10:54;;;;;;;4.43;1.98;;;;;;;18.58;55.66;101949.16;4885714;29;20036;-78
2021/03/15 05:13:22;;;;;;;3.72;2.13;;;;;;;18.58;55.75;101950.97;4866445;29;20536;-79
2021/03/15 05:15:48;;;;;;;5.20;2.38;;;;;;;18.58;55.51;101943.00;4868199;29;20044;-80
2021/03/15 05:18:16;;;;;;;5.28;2.40;;;;;;;18.57;55.55;101947.50;4876468;29;20500;-78
2021/03/15 05:20:42;;;;;;;5.03;2.20;;;;;;;18.56;55.54;101946.66;4883856;29;20315;-78
2021/03/15 05:23:10;;;;;;;4.57;1.98;;;;;;;18.56;55.83;101938.69;4859983;29;20052;-79
2021/03/15 05:25:42;;;;;;;4.25;2.10;;;;;;;18.56;55.74;101951.16;4875690;29;20044;-78
2021/03/15 05:28:09;;;;;;;6.07;2.30;;;;;;;18.56;55.74;101953.81;4891645;29;20040;-78
2021/03/15 05:30:35;;;;;;;6.68;2.25;;;;;;;18.54;55.59;101959.28;4881384;29;20119;-79
2021/03/15 05:33:03;;;;;;;4.30;2.28;;;;;;;18.54;55.50;101958.47;4892413;29;20135;-76
2021/03/15 05:35:29;;;;;;;5.32;2.20;;;;;;;18.53;55.90;101954.97;4888394;29;20392;-77
2021/03/15 05:37:55;;;;;;;4.35;1.80;;;;;;;18.53;55.55;101960.28;4884115;29;20461;-80
2021/03/15 05:40:23;;;;;;;5.07;2.10;;;;;;;18.53;55.59;101964.75;4871862;29;20116;-79
2021/03/15 05:43:00;;;;;;;5.50;2.28;;;;;;;18.51;55.81;101977.38;4883565;29;20044;-79
2021/03/15 05:45:35;;;;;;;5.90;2.22;;;;;;;18.51;55.41;101988.84;4876432;29;20036;-78
2021/03/15 05:48:29;;;;;;;5.30;2.13;;;;;;;18.49;55.84;101990.00;4891431;29;20052;-74
2021/03/15 05:51:16;;;;;;;5.65;2.63;;;;;;;18.49;55.55;101996.16;4880117;29;20116;-79
2021/03/15 05:54:12;;;;;;;3.28;1.77;;;;;;;18.47;55.57;102003.44;4891459;29;20032;-79
2021/03/15 05:56:56;;;;;;;4.97;2.50;;;;;;;18.48;55.40;102009.59;4892275;29;20548;-76
2021/03/15 05:59:38;;;;;;;5.43;2.08;;;;;;;18.47;55.47;102014.06;4877272;29;20041;-79
2021/03/15 06:02:24;;;;;;;5.35;1.92;;;;;;;18.47;55.54;102016.72;4893343;29;20092;-79
2021/03/15 06:05:15;;;;;;;5.35;1.95;;;;;;;18.46;55.50;102020.38;4892476;29;20032;-77
2021/03/15 06:07:44;;;;;;;4.18;2.00;;;;;;;18.48;55.80;102023.72;4890565;29;20530;-79
2021/03/15 06:10:15;;;;;;;5.05;1.85;;;;;;;18.46;55.58;102025.69;4891980;29;20049;-79
2021/03/15 06:12:52;;;;;;;5.47;2.42;;;;;;;18.46;55.72;102020.38;4891966;29;20036;-79
2021/03/15 06:15:30;;;;;;;4.63;1.70;;;;;;;18.43;55.44;102022.50;4892158;29;20036;-79
2021/03/15 06:17:56;;;;;;;4.68;2.22;;;;;;;18.45;55.55;102025.84;4888991;29;20025;-78
2021/03/15 06:20:23;;;;;;;6.05;2.85;;;;;;;18.45;55.38;102017.84;4884162;29;20465;-79
2021/03/15 06:22:49;;;;;;;4.90;2.00;;;;;;;18.44;55.61;102024.16;4880049;29;20140;-79
2021/03/15 06:25:16;;;;;;;5.93;1.95;;;;;;;18.44;55.46;102025.00;4888413;29;20032;-78
2021/03/15 06:27:43;;;;;;;3.60;1.63;;;;;;;18.44;55.66;102021.50;4889777;29;20457;-78
2021/03/15 06:30:09;;;;;;;3.92;1.70;;;;;;;18.44;55.51;102029.47;4875140;29;20048;-79
2021/03/15 06:32:35;;;;;;;4.82;1.92;;;;;;;18.43;55.49;102030.47;4893597;29;20480;-79
2021/03/15 06:35:02;;;;;;;4.32;1.88;;;;;;;18.43;55.59;102033.13;4877791;29;20048;-78
2021/03/15 06:37:27;;;;;;;4.63;2.05;;;;;;;18.42;55.50;102042.09;4889688;29;20093;-79
2021/03/15 06:39:54;;;;;;;5.72;1.98;;;;;;;18.43;55.27;102041.09;4875610;29;20041;-79
2021/03/15 06:42:21;;;;;;;4.95;1.95;;;;;;;18.45;55.35;102047.09;4876840;29;20528;-78
2021/03/15 06:44:47;;;;;;;4.18;1.83;;;;;;;18.44;55.20;102056.88;4866263;29;20048;-78
2021/03/15 06:47:14;;;;;;;4.38;1.77;;;;;;;18.47;55.54;102048.63;4874396;29;20069;-79
2021/03/15 06:49:40;;;;;;;4.50;1.70;;;;;;;18.49;55.24;102067.06;4889965;29;20154;-79
2021/03/15 06:52:08;;;;;;;2.80;1.60;;;;;;;18.51;55.66;102063.25;4892920;29;20060;-79
2021/03/15 06:54:34;;;;;;;3.80;1.90;;;;;;;18.53;55.51;102063.91;4889068;29;20163;-78
2021/03/15 06:57:20;;;;;;;3.85;1.67;;;;;;;18.53;55.46;102069.22;4876257;29;20044;-74
2021/03/15 06:59:54;;;;;;;4.47;1.48;;;;;;;18.59;55.44;102077.53;4888240;29;20029;-77
2021/03/15 07:02:28;;;;;;;2.88;1.48;;;;;;;18.61;55.62;102075.56;4875513;29;20108;-78
2021/03/15 07:04:55;;;;;;;3.08;1.40;;;;;;;18.64;55.38;102075.28;4882842;29;20079;-79
2021/03/15 07:07:22;;;;;;;4.20;1.60;;;;;;;18.67;55.53;102067.84;4891309;29;20033;-78
2021/03/15 07:09:48;;;;;;;3.15;1.40;;;;;;;18.70;55.53;102074.66;4875926;29;20112;-76
2021/03/15 07:12:18;;;;;;;3.80;1.58;;;;;;;18.73;55.61;102082.28;4874661;29;20062;-78
2021/03/15 07:14:45;;;;;;;4.03;1.50;;;;;;;18.76;55.79;102085.47;4887587;29;20477;-77
2021/03/15 07:17:20;;;;;;;5.10;1.52;;;;;;;18.80;56.02;102086.00;4865651;29;20076;-80
2021/03/15 07:19:46;;;;;;;2.60;1.40;;;;;;;18.84;55.88;102090.00;4875335;29;20473;-79
2021/03/15 07:22:25;;;;;;;3.20;1.50;;;;;;;18.85;56.22;102089.81;4861434;29;20048;-79
2021/03/15 07:25:09;;;;;;;4.18;1.40;;;;;;;18.89;56.04;102085.00;4892986;29;20513;-78
2021/03/15 07:27:36;;;;;;;3.58;1.33;;;;;;;18.92;55.85;102086.50;4887084;29;20113;-79
2021/03/15 07:30:37;;;;;;;3.28;1.65;;;;;;;18.93;56.39;102088.16;4868370;29;20460;-77
2021/03/15 07:33:14;;;;;;;2.85;1.25;;;;;;;18.97;56.12;102089.53;4889382;29;20025;-79
2021/03/15 07:35:40;;;;;;;4.28;1.50;;;;;;;18.99;56.68;102093.69;4881556;29;20041;-77
2021/03/15 07:38:06;;;;;;;4.03;1.60;;;;;;;19.00;56.72;102103.34;4893548;29;20048;-78
2021/03/15 07:40:33;;;;;;;3.53;1.52;;;;;;;19.04;56.82;102106.50;4883233;29;20484;-80
2021/03/15 07:43:06;;;;;;;3.80;1.67;;;;;;;19.03;57.05;102113.66;4889025;29;20055;-76
2021/03/15 07:45:34;;;;;;;3.30;1.50;;;;;;;19.06;56.88;102118.63;4878255;29;20056;-75
2021/03/15 07:48:07;;;;;;;7.22;2.22;;;;;;;19.06;57.45;102115.97;4870457;29;20072;-74
2021/03/15 07:50:34;;;;;;;4.22;1.45;;;;;;;19.08;57.47;102114.00;4866763;29;20060;-78
2021/03/15 07:53:00;;;;;;;4.38;1.40;;;;;;;19.08;57.87;102111.31;4860500;29;20045;-73
2021/03/15 07:55:40;;;;;;;3.58;1.55;;;;;;;19.09;57.98;102109.50;4866824;29;20049;-78
2021/03/15 07:58:25;;;;;;;7.60;1.83;;;;;;;19.08;57.81;102113.16;4870025;29;20101;-77
2021/03/15 08:00:53;;;;;;;3.10;1.33;;;;;;;19.10;57.70;102112.03;4869537;29;20069;-77
2021/03/15 08:03:19;;;;;;;4.15;1.60;;;;;;;19.10;57.65;102122.66;4874760;29;20045;-75
2021/03/15 08:05:44;;;;;;;6.05;1.48;;;;;;;19.10;57.59;102121.84;4858359;29;20044;-77
2021/03/15 08:08:10;;;;;;;8.57;1.83;;;;;;;19.09;57.95;102126.31;4875251;29;20393;-77
2021/03/15 08:10:35;;;;;;;7.10;1.80;;;;;;;19.10;57.99;102127.97;4876885;29;20041;-78
2021/03/15 08:13:01;;;;;;;4.68;1.45;;;;;;;19.09;58.35;102131.63;4857170;29;20465;-73
2021/03/15 08:15:31;;;;;;;8.00;1.70;;;;;;;19.10;58.30;102135.97;4877233;29;20145;-78
2021/03/15 08:17:58;;;;;;;4.75;1.80;;;;;;;19.10;58.49;102151.91;4862598;29;20124;-82
2021/03/15 08:20:25;;;;;;;5.45;1.40;;;;;;;19.10;58.74;102149.25;4876317;29;20274;-82
2021/03/15 08:22:54;;;;;;;5.80;1.60;;;;;;;19.09;58.60;102152.06;4861757;29;20597;-80
2021/03/15 08:25:21;;;;;;;6.30;1.90;;;;;;;19.08;58.60;102148.56;4860469;29;20042;-80
2021/03/15 08:27:49;;;;;;;5.38;1.23;;;;;;;19.09;58.85;102154.72;4853319;29;20049;-79
2021/03/15 08:30:29;;;;;;;5.50;1.85;;;;;;;19.07;58.78;102154.88;4867143;29;20513;-74
2021/03/15 08:32:55;;;;;;;7.88;1.75;;;;;;;19.07;59.00;102162.84;4869905;29;20061;-74
2021/03/15 08:35:21;;;;;;;7.28;1.55;;;;;;;19.07;58.73;102168.19;4869288;29;20548;-74
2021/03/15 08:37:59;;;;;;;8.65;1.55;;;;;;;19.05;59.22;102164.00;4868185;29;20041;-74
2021/03/15 08:40:40;;;;;;;7.63;1.60;;;;;;;19.04;59.04;102168.50;4873307;29;20036;-71
2021/03/15 08:43:18;;;;;;;5.82;1.50;;;;;;;19.04;58.90;102176.47;4868403;29;20033;-74
2021/03/15 08:45:55;;;;;;;12.00;2.55;;;;;;;19.04;59.26;102179.13;4861733;29;20445;-71
2021/03/15 08:48:40;;;;;;;10.93;3.17;;;;;;;19.03;59.41;102185.44;4881925;29;20057;-69
2021/03/15 08:51:05;;;;;;;13.90;3.25;;;;;;;19.04;59.12;102181.81;4889739;29;20049;-76
2021/03/15 08:53:37;;;;;;;17.67;3.72;;;;;;;19.04;59.43;102183.63;4882794;29;20679;-74
2021/03/15 08:56:12;;;;;;;30.48;4.82;;;;;;;19.02;59.73;102186.44;4891578;29;20063;-73
2021/03/15 08:58:38;;;;;;;15.25;3.97;;;;;;;19.03;59.70;102190.78;4894119;29;20037;-71
2021/03/15 09:01:05;;;;;;;13.35;3.70;;;;;;;19.03;59.58;102195.25;4884353;29;20044;-71
2021/03/15 09:03:51;;;;;;;11.85;3.65;;;;;;;18.99;59.27;102197.41;4858835;29;20047;-71
2021/03/15 09:06:38;;;;;;;13.70;3.67;;;;;;;18.99;59.45;102197.41;4895108;29;20040;-71
2021/03/15 09:09:09;;;;;;;10.60;3.28;;;;;;;19.00;59.40;102206.22;4872045;29;20068;-71
2021/03/15 09:11:34;;;;;;;15.77;3.95;;;;;;;18.98;59.44;102210.88;4868946;29;20045;-71
2021/03/15 09:17:14;;;;;;;13.43;3.55;;;;;;;18.91;59.25;102210.66;4890652;29;20040;-71
2021/03/15 09:19:41;;;;;;;9.82;3.60;;;;;;;18.91;58.61;102215.13;4861725;29;20112;-71
2021/03/15 09:22:15;;;;;;;10.02;3.35;;;;;;;18.89;58.90;102220.63;4883348;29;20033;-71
2021/03/15 09:24:58;;;;;;;12.57;3.03;;;;;;;18.84;58.62;102218.44;4873634;29;20108;-71
2021/03/15 09:27:44;;;;;;;11.25;2.88;;;;;;;18.82;58.25;102215.09;4844936;29;20112;-71
2021/03/15 09:30:14;;;;;;;10.50;2.92;;;;;;;18.83;58.16;102218.59;4874297;29;20124;-71
2021/03/15 09:32:54;;;;;;;9.88;2.60;;;;;;;18.81;58.07;102215.25;4891424;29;20032;-72
2021/03/15 09:35:28;;;;;;;8.48;2.40;;;;;;;18.78;57.69;102211.09;4875632;29;20056;-71
2021/03/15 09:38:00;;;;;;;10.52;3.08;;;;;;;18.77;57.42;102212.06;4874591;29;20469;-71
2021/03/15 09:40:40;;;;;;;7.15;2.35;;;;;;;18.74;57.59;102212.38;4886161;29;20040;-71
2021/03/15 09:43:06;;;;;;;10.32;2.83;;;;;;;18.75;57.16;102221.19;4888686;29;20039;-72
2021/03/15 09:45:40;;;;;;;10.43;2.42;;;;;;;18.71;57.11;102222.50;4874229;29;20040;-72
2021/03/15 09:48:20;;;;;;;7.28;2.58;;;;;;;18.69;56.68;102225.31;4876505;29;20064;-71
2021/03/15 09:50:51;;;;;;;5.97;2.20;;;;;;;18.69;56.52;102229.81;4870937;29;20071;-71
2021/03/15 09:53:17;;;;;;;7.35;2.45;;;;;;;18.67;56.67;102224.66;4894516;29;20036;-71
2021/03/15 09:55:44;;;;;;;8.95;2.60;;;;;;;18.66;56.24;102224.81;4870454;29;20069;-72
2021/03/15 09:58:20;;;;;;;10.45;2.97;;;;;;;18.64;56.43;102224.97;4894180;29;20048;-71
2021/03/15 10:00:45;;;;;;;9.07;2.30;;;;;;;18.63;56.26;102228.63;4886577;29;20160;-71
2021/03/15 10:03:23;;;;;;;7.13;2.22;;;;;;;18.61;55.72;102230.53;4899290;29;20119;-71
2021/03/15 10:05:52;;;;;;;7.70;2.35;;;;;;;18.59;55.78;102216.56;4892874;29;20040;-71
2021/03/15 10:08:17;;;;;;;5.28;2.25;;;;;;;18.59;55.52;102221.06;4892854;29;20087;-71
2021/03/15 10:10:43;;;;;;;8.43;2.05;;;;;;;18.58;55.43;102225.53;4879897;29;20517;-71
2021/03/15 10:13:09;;;;;;;7.78;2.47;;;;;;;18.57;55.44;102229.19;4880325;29;20036;-72
2021/03/15 10:15:35;;;;;;;5.43;2.03;;;;;;;18.55;55.65;102229.34;4892300;29;20408;-72
2021/03/15 10:18:01;;;;;;;7.22;2.30;;;;;;;18.54;55.29;102235.66;4892537;29;20032;-71
2021/03/15 10:20:29;;;;;;;6.88;2.50;;;;;;;18.54;55.06;102237.47;4893681;29;20037;-71
2021/03/15 10:22:55;;;;;;;5.50;1.92;;;;;;;18.53;55.31;102235.81;4892647;29;20063;-71
2021/03/15 10:25:21;;;;;;;6.13;1.98;;;;;;;18.52;55.34;102240.28;4892027;29;20469;-71
2021/03/15 10:27:57;;;;;;;5.75;2.10;;;;;;;18.50;55.19;102252.91;4896184;29;20096;-71
2021/03/15 10:30:32;;;;;;;7.78;2.33;;;;;;;18.49;55.27;102247.75;4889403;29;20052;-71
2021/03/15 10:32:59;;;;;;;5.28;1.75;;;;;;;18.49;55.21;102245.09;4895723;29;20049;-72
2021/03/15 10:35:26;;;;;;;6.47;2.15;;;;;;;18.48;54.75;102243.41;4888232;29;20044;-71
2021/03/15 10:37:53;;;;;;;5.70;1.70;;;;;;;18.48;55.00;102238.09;4896651;29;20171;-71
2021/03/15 10:40:23;;;;;;;5.82;1.70;;;;;;;18.48;54.58;102240.75;4881344;29;20539;-71
2021/03/15 10:42:49;;;;;;;3.85;1.63;;;;;;;18.45;54.82;102244.53;4890195;29;20112;-71
2021/03/15 10:45:16;;;;;;;5.57;1.67;;;;;;;18.44;54.58;102237.56;4879686;29;20124;-72
2021/03/15 10:47:42;;;;;;;5.10;1.60;;;;;;;18.44;54.66;102239.38;4874933;29;20056;-71
2021/03/15 10:50:23;;;;;;;4.07;1.75;;;;;;;18.42;54.38;102250.16;4865467;29;20500;-71
2021/03/15 10:52:48;;;;;;;5.32;1.60;;;;;;;18.41;54.77;102251.16;4893042;29;20111;-72
2021/03/15 10:55:17;;;;;;;6.63;1.85;;;;;;;18.41;54.47;102252.97;4895616;29;20449;-72
2021/03/15 10:58:04;;;;;;;6.72;1.92;;;;;;;18.38;54.47;102255.94;4879363;29;20425;-71
2021/03/15 11:00:33;;;;;;;5.05;1.90;;;;;;;18.39;54.62;102255.78;4896260;29;20495;-71
2021/03/15 11:02:59;;;;;;;5.55;1.85;;;;;;;18.38;54.49;102263.91;4878670;29;20033;-71
2021/03/15 11:05:24;;;;;;;5.15;1.80;;;;;;;18.37;54.51;102259.59;4896906;29;20104;-71
2021/03/15 11:07:51;;;;;;;6.53;2.15;;;;;;;18.36;54.21;102261.41;4878751;29;20124;-71
2021/03/15 11:10:26;;;;;;;6.43;1.98;;;;;;;18.35;54.03;102266.91;4879195;29;20270;-71
2021/03/15 11:12:54;;;;;;;6.85;1.75;;;;;;;18.34;54.04;102268.72;4895144;29;20033;-71
2021/03/15 11:15:33;;;;;;;6.20;1.65;;;;;;;18.31;53.85;102250.44;4896416;29;20396;-71
2021/03/15 11:18:04;;;;;;;6.45;1.67;;;;;;;18.32;54.17;102265.38;4881852;29;20473;-71
2021/03/15 11:20:41;;;;;;;3.95;1.58;;;;;;;18.30;54.03;102269.16;4879577;29;20037;-71
2021/03/15 11:23:07;;;;;;;4.82;1.60;;;;;;;18.30;53.89;102266.50;4894818;29;20032;-71
2021/03/15 11:25:34;;;;;;;4.68;2.00;;;;;;;18.29;54.22;102273.63;4872939;29;20037;-71
2021/03/15 11:28:14;;;;;;;5.88;1.80;;;;;;;18.27;54.01;102279.09;4881029;29;20503;-71
2021/03/15 11:30:41;;;;;;;4.03;1.45;;;;;;;18.26;54.04;102274.78;4883896;29;20099;-71
2021/03/15 11:33:10;;;;;;;4.75;1.50;;;;;;;18.26;53.88;102279.25;4894410;29;20036;-71
2021/03/15 11:35:38;;;;;;;6.07;1.92;;;;;;;18.25;53.85;102274.94;4879059;29;20041;-71
2021/03/15 11:38:05;;;;;;;6.88;1.90;;;;;;;18.24;53.83;102273.25;4890982;29;20048;-71
2021/03/15 11:40:50;;;;;;;6.40;1.42;;;;;;;18.25;53.77;102277.59;4878314;29;20037;-71